createdAt,value
2022-11-02T00:00:06.813Z,88.30
2022-11-02T00:01:06.821Z,88.30
2022-11-02T00:02:06.914Z,88.11
2022-11-02T00:03:07.359Z,88.30
2022-11-02T00:04:06.890Z,88.20
2022-11-02T00:05:06.915Z,87.92
2022-11-02T00:06:06.939Z,87.92
2022-11-02T00:07:06.961Z,87.82
2022-11-02T00:08:06.986Z,87.82
2022-11-02T00:09:07.011Z,87.92
2022-11-02T00:10:07.031Z,87.82
2022-11-02T00:11:07.053Z,88.01
2022-11-02T00:12:07.074Z,88.49
2022-11-02T00:13:07.467Z,88.40
2022-11-02T00:14:07.130Z,88.01
2022-11-02T00:15:07.149Z,88.20
2022-11-02T00:16:07.167Z,88.01
2022-11-02T00:17:07.193Z,88.20
2022-11-02T00:18:07.223Z,88.01
2022-11-02T00:19:07.245Z,88.68
2022-11-02T00:20:07.265Z,88.59
2022-11-02T00:21:07.283Z,88.68
2022-11-02T00:22:07.310Z,88.49
2022-11-02T00:23:07.850Z,88.63
2022-11-02T00:24:07.357Z,88.06
2022-11-02T00:25:07.383Z,88.25
2022-11-02T00:26:07.407Z,88.06
2022-11-02T00:27:07.425Z,88.44
2022-11-02T00:28:07.445Z,87.87
2022-11-02T00:29:07.471Z,87.87
2022-11-02T00:30:07.497Z,88.06
2022-11-02T00:31:07.518Z,88.06
2022-11-02T00:32:07.542Z,87.87
2022-11-02T00:33:07.565Z,87.96
2022-11-02T00:34:07.585Z,87.87
2022-11-02T00:35:07.605Z,87.87
2022-11-02T00:36:07.636Z,88.15
2022-11-02T00:37:07.653Z,88.25
2022-11-02T00:38:07.962Z,87.96
2022-11-02T00:39:07.698Z,87.96
2022-11-02T00:40:07.728Z,88.25
2022-11-02T00:41:07.770Z,87.20
2022-11-02T00:42:07.772Z,87.58
2022-11-02T00:43:07.792Z,87.20
2022-11-02T00:44:07.823Z,87.48
2022-11-02T00:45:07.841Z,87.39
2022-11-02T00:46:07.868Z,87.39
2022-11-02T00:47:07.886Z,87.39
2022-11-02T00:48:08.030Z,87.20
2022-11-02T00:49:07.937Z,87.20
2022-11-02T00:50:07.962Z,87.10
2022-11-02T00:51:07.980Z,87.10
2022-11-02T00:52:08.008Z,87.15
2022-11-02T00:53:08.029Z,87.10
2022-11-02T00:54:08.053Z,87.53
2022-11-02T00:55:08.079Z,87.53
2022-11-02T00:56:08.103Z,87.34
2022-11-02T00:57:08.127Z,87.34
2022-11-02T00:58:08.412Z,87.24
2022-11-02T00:59:08.172Z,87.15
2022-11-02T01:00:08.195Z,87.43
2022-11-02T01:01:08.603Z,87.24
2022-11-02T01:02:08.343Z,87.24
2022-11-02T01:03:08.266Z,86.86
2022-11-02T01:04:08.291Z,86.86
2022-11-02T01:05:08.316Z,86.86
2022-11-02T01:06:08.336Z,86.86
2022-11-02T01:07:08.365Z,86.76
2022-11-02T01:08:08.384Z,86.67
2022-11-02T01:09:08.408Z,87.34
2022-11-02T01:10:08.430Z,87.05
2022-11-02T01:11:08.456Z,87.24
2022-11-02T01:12:08.481Z,87.34
2022-11-02T01:13:08.501Z,87.15
2022-11-02T01:14:08.523Z,87.24
2022-11-02T01:15:08.550Z,87.05
2022-11-02T01:16:08.579Z,87.43
2022-11-02T01:17:08.596Z,87.53
2022-11-02T01:18:08.616Z,87.53
2022-11-02T01:19:08.655Z,87.34
2022-11-02T01:20:08.667Z,87.53
2022-11-02T01:21:08.692Z,88.29
2022-11-02T01:22:08.714Z,88.10
2022-11-02T01:23:08.742Z,88.10
2022-11-02T01:24:08.788Z,88.29
2022-11-02T01:25:08.783Z,88.29
2022-11-02T01:26:08.805Z,88.10
2022-11-02T01:27:08.831Z,88.10
2022-11-02T01:28:08.852Z,88.01
2022-11-02T01:29:08.880Z,88.20
2022-11-02T01:30:08.902Z,88.20
2022-11-02T01:31:08.927Z,88.29
2022-11-02T01:32:08.950Z,88.20
2022-11-02T01:33:08.971Z,88.01
2022-11-02T01:34:09.013Z,87.91
2022-11-02T01:35:09.023Z,88.10
2022-11-02T01:36:09.085Z,88.10
2022-11-02T01:37:09.068Z,88.10
2022-11-02T01:38:09.094Z,88.10
2022-11-02T01:39:09.113Z,88.20
2022-11-02T01:40:09.142Z,88.29
2022-11-02T01:41:09.162Z,88.20
2022-11-02T01:42:09.184Z,88.20
2022-11-02T01:43:09.213Z,88.10
2022-11-02T01:44:09.238Z,88.10
2022-11-02T01:45:09.264Z,88.10
2022-11-02T01:46:09.282Z,88.01
2022-11-02T01:47:09.304Z,88.10
2022-11-02T01:48:09.324Z,88.10
2022-11-02T01:49:09.353Z,88.01
2022-11-02T01:50:09.374Z,87.91
2022-11-02T01:51:09.404Z,88.01
2022-11-02T01:52:09.419Z,88.20
2022-11-02T01:53:09.451Z,88.20
2022-11-02T01:54:09.472Z,88.10
2022-11-02T01:55:09.502Z,87.91
2022-11-02T01:56:09.566Z,88.10
2022-11-02T01:57:09.541Z,88.39
2022-11-02T01:58:09.565Z,88.48
2022-11-02T01:59:09.587Z,88.39
2022-11-02T02:00:09.609Z,88.20
2022-11-02T02:01:09.678Z,88.68
2022-11-02T02:02:09.822Z,88.77
2022-11-02T02:03:09.684Z,88.68
2022-11-02T02:04:09.707Z,89.15
2022-11-02T02:05:09.731Z,89.06
2022-11-02T02:06:09.753Z,88.96
2022-11-02T02:07:09.780Z,88.96
2022-11-02T02:08:09.798Z,89.92
2022-11-02T02:09:09.826Z,89.34
2022-11-02T02:10:09.847Z,89.44
2022-11-02T02:11:09.875Z,89.44
2022-11-02T02:12:09.900Z,89.44
2022-11-02T02:13:09.918Z,89.44
2022-11-02T02:14:09.949Z,89.63
2022-11-02T02:15:09.968Z,89.44
2022-11-02T02:16:09.990Z,89.53
2022-11-02T02:17:10.020Z,89.63
2022-11-02T02:18:10.041Z,89.73
2022-11-02T02:19:10.060Z,89.63
2022-11-02T02:20:10.081Z,89.53
2022-11-02T02:21:10.111Z,89.73
2022-11-02T02:22:10.130Z,89.92
2022-11-02T02:23:10.162Z,90.20
2022-11-02T02:24:10.182Z,90.01
2022-11-02T02:25:10.204Z,90.20
2022-11-02T02:26:10.227Z,90.39
2022-11-02T02:27:10.253Z,90.30
2022-11-02T02:28:10.277Z,89.82
2022-11-02T02:29:10.300Z,90.01
2022-11-02T02:30:10.337Z,90.01
2022-11-02T02:31:10.342Z,90.20
2022-11-02T02:32:10.369Z,90.01
2022-11-02T02:33:10.403Z,90.68
2022-11-02T02:34:10.417Z,90.11
2022-11-02T02:35:10.448Z,90.39
2022-11-02T02:36:10.464Z,90.39
2022-11-02T02:37:10.484Z,90.78
2022-11-02T02:38:10.510Z,90.78
2022-11-02T02:39:10.533Z,90.59
2022-11-02T02:40:10.558Z,90.59
2022-11-02T02:41:10.578Z,90.49
2022-11-02T02:42:10.600Z,90.97
2022-11-02T02:43:10.636Z,90.92
2022-11-02T02:44:10.656Z,90.78
2022-11-02T02:45:10.673Z,90.59
2022-11-02T02:46:10.697Z,90.88
2022-11-02T02:47:10.722Z,91.74
2022-11-02T02:48:10.738Z,91.59
2022-11-02T02:49:10.769Z,91.35
2022-11-02T02:50:10.789Z,91.45
2022-11-02T02:51:10.810Z,91.45
2022-11-02T02:52:10.844Z,91.54
2022-11-02T02:53:10.856Z,91.45
2022-11-02T02:54:10.882Z,91.40
2022-11-02T02:55:10.901Z,91.50
2022-11-02T02:56:10.942Z,91.69
2022-11-02T02:57:10.960Z,91.50
2022-11-02T02:58:10.973Z,91.50
2022-11-02T02:59:11.001Z,91.21
2022-11-02T03:00:11.022Z,91.74
2022-11-02T03:01:11.186Z,91.74
2022-11-02T03:02:11.136Z,91.69
2022-11-02T03:03:11.090Z,91.69
2022-11-02T03:04:11.115Z,91.50
2022-11-02T03:05:11.141Z,91.50
2022-11-02T03:06:11.162Z,91.50
2022-11-02T03:07:11.181Z,91.30
2022-11-02T03:08:11.207Z,91.11
2022-11-02T03:09:11.233Z,91.30
2022-11-02T03:10:11.252Z,92.07
2022-11-02T03:11:11.273Z,91.78
2022-11-02T03:12:11.297Z,91.69
2022-11-02T03:13:11.320Z,91.88
2022-11-02T03:14:11.342Z,91.78
2022-11-02T03:15:11.369Z,91.88
2022-11-02T03:16:11.385Z,91.78
2022-11-02T03:17:11.414Z,91.59
2022-11-02T03:18:11.436Z,91.59
2022-11-02T03:19:11.462Z,91.88
2022-11-02T03:20:11.484Z,92.26
2022-11-02T03:21:11.509Z,92.07
2022-11-02T03:22:11.531Z,91.78
2022-11-02T03:23:11.549Z,92.16
2022-11-02T03:24:11.571Z,92.45
2022-11-02T03:25:11.597Z,92.07
2022-11-02T03:26:11.632Z,92.74
2022-11-02T03:27:11.642Z,92.83
2022-11-02T03:28:11.667Z,92.45
2022-11-02T03:29:11.691Z,92.64
2022-11-02T03:30:11.712Z,92.16
2022-11-02T03:31:11.736Z,92.16
2022-11-02T03:32:11.756Z,92.36
2022-11-02T03:33:11.781Z,93.07
2022-11-02T03:34:11.800Z,93.12
2022-11-02T03:35:11.824Z,93.07
2022-11-02T03:36:11.850Z,93.07
2022-11-02T03:37:11.877Z,92.69
2022-11-02T03:38:11.893Z,92.97
2022-11-02T03:39:11.916Z,92.50
2022-11-02T03:40:11.941Z,92.50
2022-11-02T03:41:11.963Z,92.50
2022-11-02T03:42:11.991Z,92.60
2022-11-02T03:43:12.011Z,92.79
2022-11-02T03:44:12.029Z,92.88
2022-11-02T03:45:12.059Z,93.17
2022-11-02T03:46:12.080Z,92.79
2022-11-02T03:47:12.099Z,92.60
2022-11-02T03:48:12.122Z,92.79
2022-11-02T03:49:12.150Z,92.69
2022-11-02T03:50:12.171Z,92.50
2022-11-02T03:51:12.199Z,92.88
2022-11-02T03:52:12.216Z,93.36
2022-11-02T03:53:12.247Z,92.88
2022-11-02T03:54:12.261Z,93.36
2022-11-02T03:55:12.293Z,93.31
2022-11-02T03:56:12.304Z,93.07
2022-11-02T03:57:12.329Z,93.36
2022-11-02T03:58:12.353Z,93.26
2022-11-02T03:59:12.379Z,93.41
2022-11-02T04:00:12.397Z,93.07
2022-11-02T04:01:12.436Z,93.21
2022-11-02T04:02:12.681Z,93.12
2022-11-02T04:03:12.468Z,93.31
2022-11-02T04:04:12.492Z,92.74
2022-11-02T04:05:12.516Z,92.64
2022-11-02T04:06:12.539Z,92.74
2022-11-02T04:07:12.560Z,93.12
2022-11-02T04:08:12.585Z,92.83
2022-11-02T04:09:12.608Z,92.83
2022-11-02T04:10:12.633Z,93.02
2022-11-02T04:11:12.653Z,92.93
2022-11-02T04:12:12.678Z,92.74
2022-11-02T04:13:12.701Z,93.02
2022-11-02T04:14:12.732Z,92.64
2022-11-02T04:15:12.747Z,93.60
2022-11-02T04:16:12.766Z,93.02
2022-11-02T04:17:12.790Z,92.83
2022-11-02T04:18:12.815Z,92.83
2022-11-02T04:19:12.837Z,92.55
2022-11-02T04:20:12.856Z,92.83
2022-11-02T04:21:12.881Z,92.83
2022-11-02T04:22:12.909Z,93.21
2022-11-02T04:23:12.930Z,92.83
2022-11-02T04:24:12.954Z,92.83
2022-11-02T04:25:12.980Z,92.83
2022-11-02T04:26:12.996Z,93.02
2022-11-02T04:27:16.740Z,93.02
2022-11-02T04:28:13.041Z,92.74
2022-11-02T04:29:13.065Z,93.12
2022-11-02T04:30:13.094Z,93.12
2022-11-02T04:31:13.110Z,92.83
2022-11-02T04:32:13.138Z,93.12
2022-11-02T04:33:13.160Z,93.12
2022-11-02T04:34:13.182Z,92.36
2022-11-02T04:35:13.205Z,92.64
2022-11-02T04:36:13.225Z,92.55
2022-11-02T04:37:13.260Z,92.55
2022-11-02T04:38:13.279Z,92.64
2022-11-02T04:39:13.299Z,92.07
2022-11-02T04:40:13.325Z,92.16
2022-11-02T04:41:13.348Z,92.26
2022-11-02T04:42:13.369Z,92.26
2022-11-02T04:43:13.391Z,91.88
2022-11-02T04:44:13.412Z,92.21
2022-11-02T04:45:13.443Z,92.36
2022-11-02T04:46:13.462Z,91.74
2022-11-02T04:47:13.486Z,91.83
2022-11-02T04:48:13.507Z,91.40
2022-11-02T04:49:13.529Z,91.93
2022-11-02T04:50:13.552Z,91.35
2022-11-02T04:51:13.577Z,91.35
2022-11-02T04:52:13.603Z,91.35
2022-11-02T04:53:13.625Z,91.83
2022-11-02T04:54:13.646Z,91.25
2022-11-02T04:55:13.672Z,90.78
2022-11-02T04:56:13.698Z,90.78
2022-11-02T04:57:13.721Z,91.16
2022-11-02T04:58:13.740Z,90.68
2022-11-02T04:59:13.769Z,90.59
2022-11-02T05:00:13.794Z,90.78
2022-11-02T05:01:13.854Z,90.78
2022-11-02T05:02:13.997Z,90.59
2022-11-02T05:03:13.858Z,90.78
2022-11-02T05:04:13.883Z,90.68
2022-11-02T05:05:13.914Z,90.49
2022-11-02T05:06:13.929Z,90.68
2022-11-02T05:07:13.954Z,90.59
2022-11-02T05:08:13.975Z,90.64
2022-11-02T05:09:13.997Z,90.68
2022-11-02T05:10:14.017Z,90.92
2022-11-02T05:11:14.045Z,91.06
2022-11-02T05:12:14.065Z,90.83
2022-11-02T05:13:14.094Z,90.73
2022-11-02T05:14:14.115Z,91.30
2022-11-02T05:15:14.139Z,91.69
2022-11-02T05:16:14.167Z,91.78
2022-11-02T05:17:14.184Z,91.69
2022-11-02T05:18:18.608Z,91.50
2022-11-02T05:19:14.242Z,90.54
2022-11-02T05:20:14.253Z,90.73
2022-11-02T05:21:14.286Z,90.73
2022-11-02T05:22:14.340Z,90.54
2022-11-02T05:23:14.325Z,90.54
2022-11-02T05:24:14.351Z,90.83
2022-11-02T05:25:14.374Z,90.73
2022-11-02T05:26:14.400Z,90.73
2022-11-02T05:27:14.414Z,90.83
2022-11-02T05:28:14.437Z,90.92
2022-11-02T05:29:14.464Z,90.54
2022-11-02T05:30:14.488Z,91.50
2022-11-02T05:31:14.511Z,91.40
2022-11-02T05:32:14.535Z,91.69
2022-11-02T05:33:14.570Z,91.30
2022-11-02T05:34:14.577Z,91.59
2022-11-02T05:35:14.610Z,91.69
2022-11-02T05:36:14.624Z,91.40
2022-11-02T05:37:14.647Z,91.50
2022-11-02T05:38:14.670Z,91.40
2022-11-02T05:39:14.695Z,91.69
2022-11-02T05:40:14.717Z,91.40
2022-11-02T05:41:14.736Z,91.40
2022-11-02T05:42:14.763Z,90.54
2022-11-02T05:43:14.800Z,90.73
2022-11-02T05:44:14.808Z,91.02
2022-11-02T05:45:14.834Z,91.11
2022-11-02T05:46:14.859Z,90.64
2022-11-02T05:47:14.880Z,90.45
2022-11-02T05:48:14.902Z,90.92
2022-11-02T05:49:14.932Z,90.16
2022-11-02T05:50:14.948Z,90.54
2022-11-02T05:51:14.969Z,90.45
2022-11-02T05:52:14.991Z,90.54
2022-11-02T05:53:15.018Z,89.87
2022-11-02T05:54:15.040Z,90.25
2022-11-02T05:55:15.061Z,90.25
2022-11-02T05:56:16.543Z,90.54
2022-11-02T05:57:15.107Z,90.83
2022-11-02T05:58:15.135Z,90.54
2022-11-02T05:59:15.160Z,91.11
2022-11-02T06:00:15.177Z,91.11
2022-11-02T06:01:15.253Z,90.73
2022-11-02T06:02:15.229Z,90.54
2022-11-02T06:03:15.260Z,91.59
2022-11-02T06:04:15.304Z,91.59
2022-11-02T06:05:15.356Z,91.30
2022-11-02T06:06:15.315Z,91.30
2022-11-02T06:07:15.340Z,91.50
2022-11-02T06:08:15.361Z,91.40
2022-11-02T06:09:15.385Z,91.40
2022-11-02T06:10:15.411Z,91.50
2022-11-02T06:11:15.436Z,91.59
2022-11-02T06:12:15.465Z,91.69
2022-11-02T06:13:15.474Z,90.83
2022-11-02T06:14:15.524Z,90.92
2022-11-02T06:15:15.526Z,91.02
2022-11-02T06:16:18.757Z,90.83
2022-11-02T06:17:15.570Z,90.54
2022-11-02T06:18:15.604Z,90.54
2022-11-02T06:20:15.639Z,90.54
2022-11-02T06:21:15.666Z,90.54
2022-11-02T06:22:15.685Z,91.11
2022-11-02T06:23:15.706Z,91.11
2022-11-02T06:24:15.729Z,90.83
2022-11-02T06:25:15.759Z,91.30
2022-11-02T06:26:15.775Z,90.92
2022-11-02T06:27:15.803Z,91.21
2022-11-02T06:28:15.825Z,91.11
2022-11-02T06:29:15.839Z,91.11
2022-11-02T06:30:15.870Z,91.02
2022-11-02T06:31:15.887Z,90.83
2022-11-02T06:32:15.924Z,90.73
2022-11-02T06:33:15.937Z,90.73
2022-11-02T06:34:15.958Z,90.64
2022-11-02T06:35:15.978Z,90.54
2022-11-02T06:36:16.003Z,91.40
2022-11-02T06:37:16.048Z,91.50
2022-11-02T06:38:16.063Z,91.50
2022-11-02T06:39:16.070Z,91.88
2022-11-02T06:40:16.098Z,90.54
2022-11-02T06:41:16.130Z,90.54
2022-11-02T06:42:16.145Z,90.92
2022-11-02T06:43:17.302Z,90.73
2022-11-02T06:44:16.195Z,90.73
2022-11-02T06:45:16.219Z,91.59
2022-11-02T06:46:16.238Z,91.50
2022-11-02T06:47:16.260Z,91.50
2022-11-02T06:48:16.284Z,91.11
2022-11-02T06:49:16.303Z,91.02
2022-11-02T06:50:16.326Z,90.73
2022-11-02T06:51:16.349Z,90.64
2022-11-02T06:52:16.373Z,90.25
2022-11-02T06:53:16.397Z,90.25
2022-11-02T06:54:23.589Z,90.06
2022-11-02T06:56:20.930Z,89.78
2022-11-02T06:57:20.444Z,89.87
2022-11-02T06:59:24.454Z,89.63
2022-11-02T07:00:24.479Z,89.87
2022-11-02T07:02:28.985Z,88.96
2022-11-02T07:03:28.514Z,88.68
2022-11-02T07:05:32.506Z,88.29
2022-11-02T07:06:32.526Z,88.25
2022-11-02T07:08:37.012Z,88.68
2022-11-02T07:09:36.542Z,88.68
2022-11-02T07:11:40.556Z,88.68
2022-11-02T07:12:40.609Z,88.87
2022-11-02T07:14:45.068Z,89.06
2022-11-02T07:15:44.604Z,88.58
2022-11-02T07:17:48.627Z,88.01
2022-11-02T07:18:48.635Z,88.29
2022-11-02T07:20:53.130Z,87.62
2022-11-02T07:21:52.659Z,87.53
2022-11-02T07:23:45.596Z,87.05
2022-11-02T07:24:45.615Z,87.24
2022-11-02T07:26:50.118Z,87.24
2022-11-02T07:27:49.630Z,86.86
2022-11-02T07:29:53.652Z,86.76
2022-11-02T07:30:53.661Z,85.90
2022-11-02T07:32:47.142Z,86.10
2022-11-02T07:33:46.621Z,85.42
2022-11-02T07:35:50.625Z,85.66
2022-11-02T07:36:50.655Z,85.81
2022-11-02T07:38:55.134Z,85.18
2022-11-02T07:39:54.665Z,85.28
2022-11-02T07:41:58.707Z,85.66
2022-11-02T07:42:58.703Z,84.99
2022-11-02T07:45:03.206Z,84.70
2022-11-02T07:46:02.727Z,84.89
2022-11-02T07:48:06.747Z,84.61
2022-11-02T07:49:06.760Z,83.46
2022-11-02T07:51:11.269Z,83.65
2022-11-02T07:52:10.799Z,84.42
2022-11-02T07:54:14.801Z,83.46
2022-11-02T07:55:14.813Z,83.65
2022-11-02T07:57:19.308Z,83.17
2022-11-02T07:58:18.845Z,83.27
2022-11-02T08:00:22.870Z,82.70
2022-11-02T08:01:22.986Z,82.70
2022-11-02T08:03:16.436Z,82.51
2022-11-02T08:04:15.983Z,83.46
2022-11-02T08:06:19.932Z,82.41
2022-11-02T08:07:19.955Z,82.70
2022-11-02T08:09:24.440Z,82.98
2022-11-02T08:10:23.973Z,83.08
2022-11-02T08:12:27.986Z,83.08
2022-11-02T08:13:32.891Z,83.08
2022-11-02T08:15:32.493Z,83.17
2022-11-02T08:16:32.032Z,83.27
2022-11-02T08:20:08.186Z,82.41
2022-11-02T08:21:08.182Z,82.22
2022-11-02T08:23:01.664Z,82.31
2022-11-02T08:24:01.156Z,82.12
2022-11-02T08:26:05.174Z,82.03
2022-11-02T08:27:05.193Z,81.65
2022-11-02T08:29:09.690Z,80.69
2022-11-02T08:30:09.225Z,80.69
2022-11-02T08:32:13.251Z,80.92
2022-11-02T08:33:13.311Z,81.11
2022-11-02T08:35:17.759Z,80.82
2022-11-02T08:36:17.300Z,80.63
2022-11-02T08:38:21.315Z,79.20
2022-11-02T08:39:21.334Z,79.87
2022-11-02T08:41:25.819Z,79.39
2022-11-02T08:42:25.360Z,79.58
2022-11-02T08:44:29.390Z,80.35
2022-11-02T08:45:35.083Z,79.58
2022-11-02T08:47:33.900Z,79.10
2022-11-02T08:48:33.444Z,79.77
2022-11-02T08:50:26.384Z,79.96
2022-11-02T08:51:26.396Z,79.29
2022-11-02T08:53:30.906Z,79.58
2022-11-02T08:54:30.433Z,79.39
2022-11-02T08:56:34.467Z,79.10
2022-11-02T08:57:34.470Z,78.81
2022-11-02T08:59:38.976Z,79.33
2022-11-02T09:00:38.511Z,78.86
2022-11-02T09:02:42.583Z,77.80
2022-11-02T09:03:42.539Z,77.70
2022-11-02T09:05:47.038Z,77.70
2022-11-02T09:06:46.576Z,77.80
2022-11-02T09:08:52.771Z,77.61
2022-11-02T09:09:50.606Z,78.86
2022-11-02T09:11:55.099Z,77.23
2022-11-02T09:12:54.641Z,77.70
2022-11-02T09:14:58.651Z,77.90
2022-11-02T09:15:58.675Z,77.99
2022-11-02T09:18:03.668Z,77.51
2022-11-02T09:19:02.690Z,77.33
2022-11-02T09:20:55.639Z,77.13
2022-11-02T09:21:55.652Z,77.51
2022-11-02T09:24:00.841Z,77.04
2022-11-02T09:24:59.723Z,76.94
2022-11-02T09:27:03.744Z,76.46
2022-11-02T09:28:03.759Z,77.13
2022-11-02T09:31:12.240Z,76.21
2022-11-02T09:32:11.773Z,76.98
2022-11-02T09:34:15.783Z,76.21
2022-11-02T09:35:15.798Z,76.02
2022-11-02T09:37:20.294Z,76.12
2022-11-02T09:38:19.830Z,76.69
2022-11-02T09:40:12.797Z,76.40
2022-11-02T09:41:12.787Z,76.79
2022-11-02T09:43:17.278Z,75.73
2022-11-02T09:44:16.825Z,76.18
2022-11-02T09:46:20.835Z,75.98
2022-11-02T09:49:25.353Z,76.65
2022-11-02T09:52:28.902Z,77.08
2022-11-02T09:53:28.917Z,76.12
2022-11-02T09:55:33.414Z,76.12
2022-11-02T09:56:32.945Z,76.50
2022-11-02T09:58:26.076Z,76.65
2022-11-02T09:59:26.101Z,76.69
2022-11-02T10:01:30.635Z,76.69
2022-11-02T10:02:30.183Z,76.60
2022-11-02T10:04:34.151Z,76.50
2022-11-02T10:05:34.163Z,76.12
2022-11-02T10:07:38.660Z,76.60
2022-11-02T10:08:38.201Z,75.26
2022-11-02T10:10:31.145Z,75.54
2022-11-02T10:11:31.268Z,75.83
2022-11-02T10:13:35.661Z,75.93
2022-11-02T10:14:35.201Z,75.45
2022-11-02T10:16:39.219Z,74.97
2022-11-02T10:17:39.237Z,75.35
2022-11-02T10:19:43.731Z,74.97
2022-11-02T10:20:43.278Z,75.26
2022-11-02T10:22:47.326Z,76.02
2022-11-02T10:23:47.330Z,75.64
2022-11-02T10:25:51.827Z,75.73
2022-11-02T10:26:51.365Z,75.64
2022-11-02T10:28:55.379Z,74.97
2022-11-02T10:29:55.401Z,74.77
2022-11-02T10:33:04.317Z,74.87
2022-11-02T10:34:03.422Z,74.49
2022-11-02T10:36:22.918Z,74.01
2022-11-02T10:37:07.462Z,74.20
2022-11-02T10:39:11.965Z,73.63
2022-11-02T10:40:11.495Z,72.96
2022-11-02T10:42:15.555Z,73.63
2022-11-02T10:43:15.583Z,72.86
2022-11-02T10:45:20.053Z,73.24
2022-11-02T10:46:19.582Z,73.05
2022-11-02T10:48:23.608Z,72.67
2022-11-02T10:49:23.625Z,73.15
2022-11-02T10:51:28.610Z,73.15
2022-11-02T10:52:27.651Z,74.01
2022-11-02T10:54:34.525Z,74.11
2022-11-02T10:55:31.677Z,73.63
2022-11-02T10:57:36.179Z,74.40
2022-11-02T10:58:35.723Z,73.82
2022-11-02T11:00:28.817Z,73.34
2022-11-02T11:01:28.800Z,72.77
2022-11-02T11:03:33.178Z,73.72
2022-11-02T11:04:32.713Z,73.05
2022-11-02T11:06:36.724Z,72.58
2022-11-02T11:07:36.746Z,71.91
2022-11-02T11:09:46.439Z,72.09
2022-11-02T11:10:40.776Z,72.00
2022-11-02T11:12:44.801Z,72.00
2022-11-02T11:15:49.315Z,72.29
2022-11-02T11:16:48.936Z,72.19
2022-11-02T11:19:52.899Z,72.19
2022-11-02T11:21:57.388Z,72.80
2022-11-02T11:22:56.935Z,72.23
2022-11-02T11:25:00.944Z,71.46
2022-11-02T11:26:00.989Z,71.08
2022-11-02T11:28:05.760Z,69.93
2022-11-02T11:29:04.999Z,70.31
2022-11-02T11:31:00.195Z,70.41
2022-11-02T11:31:57.959Z,69.83
2022-11-02T11:34:02.457Z,68.40
2022-11-02T11:35:01.999Z,67.85
2022-11-02T11:37:06.015Z,66.96
2022-11-02T11:38:06.340Z,67.63
2022-11-02T11:40:10.528Z,67.72
2022-11-02T11:41:10.068Z,67.25
2022-11-02T11:43:14.097Z,67.54
2022-11-02T11:44:14.113Z,66.86
2022-11-02T11:46:18.624Z,67.25
2022-11-02T11:47:18.155Z,67.72
2022-11-02T11:49:31.108Z,67.91
2022-11-02T11:50:29.514Z,67.76
2022-11-02T11:52:31.234Z,66.61
2022-11-02T11:53:26.238Z,66.71
2022-11-02T11:55:30.269Z,66.71
2022-11-02T11:56:30.268Z,66.42
2022-11-02T11:58:34.763Z,66.99
2022-11-02T11:59:34.302Z,66.13
2022-11-02T12:01:38.399Z,65.94
2022-11-02T12:02:43.979Z,65.94
2022-11-02T12:04:42.832Z,66.61
2022-11-02T12:05:42.368Z,66.96
2022-11-02T12:07:46.395Z,67.66
2022-11-02T12:08:46.408Z,67.66
2022-11-02T12:10:39.887Z,66.89
2022-11-02T12:11:39.361Z,67.38
2022-11-02T12:13:43.403Z,65.75
2022-11-02T12:14:43.407Z,65.65
2022-11-02T12:16:47.917Z,65.65
2022-11-02T12:17:47.446Z,65.36
2022-11-02T12:19:51.485Z,65.65
2022-11-02T12:20:51.503Z,65.65
2022-11-02T12:22:55.999Z,65.84
2022-11-02T12:23:55.570Z,66.32
2022-11-02T12:26:03.233Z,66.71
2022-11-02T12:26:59.583Z,66.80
2022-11-02T12:29:04.081Z,66.51
2022-11-02T12:30:03.624Z,66.51
2022-11-02T12:32:07.637Z,65.55
2022-11-02T12:33:07.946Z,65.94
2022-11-02T12:35:29.341Z,66.51
2022-11-02T12:36:11.724Z,65.75
2022-11-02T12:38:15.713Z,65.08
2022-11-02T12:39:15.749Z,64.98
2022-11-02T12:41:09.208Z,65.08
2022-11-02T12:42:08.689Z,65.26
2022-11-02T12:44:12.715Z,65.94
2022-11-02T12:45:12.724Z,65.36
2022-11-02T12:47:17.222Z,65.08
2022-11-02T12:48:16.762Z,64.12
2022-11-02T12:50:09.706Z,64.02
2022-11-02T12:51:09.731Z,63.92
2022-11-02T12:53:14.718Z,63.06
2022-11-02T12:54:14.259Z,62.87
2022-11-02T12:55:17.065Z,63.54
2022-11-02T12:56:14.313Z,63.73
2022-11-02T12:57:14.340Z,63.54
2022-11-02T12:58:14.362Z,63.16
2022-11-02T12:59:14.421Z,62.39
2022-11-02T13:00:14.416Z,62.01
2022-11-02T13:01:14.536Z,62.10
2022-11-02T13:02:14.466Z,62.96
2022-11-02T13:03:14.492Z,63.26
2022-11-02T13:04:14.510Z,63.54
2022-11-02T13:05:14.542Z,63.92
2022-11-02T13:06:14.567Z,63.64
2022-11-02T13:07:14.591Z,63.83
2022-11-02T13:08:14.616Z,63.83
2022-11-02T13:09:14.647Z,64.02
2022-11-02T13:10:14.672Z,63.73
2022-11-02T13:11:14.699Z,63.73
2022-11-02T13:12:14.717Z,63.92
2022-11-02T13:13:14.743Z,63.92
2022-11-02T13:14:15.676Z,64.12
2022-11-02T13:15:14.801Z,64.12
2022-11-02T13:16:14.822Z,64.22
2022-11-02T13:17:14.850Z,63.73
2022-11-02T13:18:14.901Z,63.83
2022-11-02T13:19:14.900Z,64.02
2022-11-02T13:20:22.179Z,64.02
2022-11-02T13:22:19.414Z,63.92
2022-11-02T13:23:19.034Z,64.40
2022-11-02T13:25:22.992Z,63.45
2022-11-02T13:26:23.010Z,63.16
2022-11-02T13:28:27.498Z,63.03
2022-11-02T13:29:27.047Z,63.13
2022-11-02T13:31:31.074Z,63.13
2022-11-02T13:32:34.042Z,63.42
2022-11-02T13:34:35.561Z,63.89
2022-11-02T13:35:35.115Z,64.18
2022-11-02T13:37:39.132Z,63.99
2022-11-02T13:38:39.146Z,64.56
2022-11-02T13:40:32.628Z,65.23
2022-11-02T13:41:32.102Z,65.42
2022-11-02T13:43:36.128Z,66.00
2022-11-02T13:44:36.138Z,65.62
2022-11-02T13:46:40.622Z,66.48
2022-11-02T13:47:40.182Z,66.38
2022-11-02T13:49:44.193Z,66.58
2022-11-02T13:50:44.208Z,66.00
2022-11-02T13:52:50.200Z,66.83
2022-11-02T13:53:48.246Z,66.74
2022-11-02T13:55:52.276Z,67.02
2022-11-02T13:56:52.279Z,67.02
2022-11-02T13:58:56.773Z,67.11
2022-11-02T13:59:56.319Z,66.93
2022-11-02T14:02:00.495Z,66.83
2022-11-02T14:03:00.466Z,66.74
2022-11-02T14:05:05.340Z,66.45
2022-11-02T14:06:04.384Z,66.25
2022-11-02T14:08:08.811Z,65.49
2022-11-02T14:09:08.421Z,65.49
2022-11-02T14:11:03.605Z,65.20
2022-11-02T14:12:01.381Z,64.63
2022-11-02T14:14:05.406Z,64.72
2022-11-02T14:15:05.417Z,65.30
2022-11-02T14:17:09.932Z,65.58
2022-11-02T14:18:09.691Z,66.64
2022-11-02T14:20:13.487Z,66.25
2022-11-02T14:21:13.496Z,66.25
2022-11-02T14:23:17.987Z,66.16
2022-11-02T14:24:17.537Z,66.35
2022-11-02T14:26:21.550Z,66.54
2022-11-02T14:27:21.569Z,66.54
2022-11-02T14:29:26.061Z,66.35
2022-11-02T14:30:25.603Z,67.02
2022-11-02T14:32:29.638Z,66.83
2022-11-02T14:33:29.645Z,67.02
2022-11-02T14:35:34.138Z,66.74
2022-11-02T14:36:33.688Z,67.08
2022-11-02T14:38:37.712Z,66.80
2022-11-02T14:39:37.726Z,66.74
2022-11-02T14:41:42.214Z,67.02
2022-11-02T14:42:41.768Z,66.80
2022-11-02T14:44:45.781Z,66.93
2022-11-02T14:45:45.801Z,66.89
2022-11-02T14:47:50.286Z,67.08
2022-11-02T14:48:49.840Z,67.85
2022-11-02T14:50:42.788Z,67.85
2022-11-02T14:51:42.806Z,67.85
2022-11-02T14:53:47.291Z,67.56
2022-11-02T14:54:46.847Z,67.66
2022-11-02T14:56:50.864Z,67.66
2022-11-02T14:57:50.876Z,67.47
2022-11-02T14:59:55.365Z,67.37
2022-11-02T15:00:55.002Z,68.04
2022-11-02T15:02:58.942Z,68.33
2022-11-02T15:03:58.949Z,68.33
2022-11-02T15:06:03.834Z,68.13
2022-11-02T15:07:03.031Z,68.13
2022-11-02T15:09:07.044Z,68.80
2022-11-02T15:10:07.119Z,68.90
2022-11-02T15:12:11.543Z,68.90
2022-11-02T15:13:15.937Z,69.54
2022-11-02T15:15:15.128Z,69.64
2022-11-02T15:16:15.140Z,69.54
2022-11-02T15:18:19.626Z,70.11
2022-11-02T15:19:19.179Z,70.21
2022-11-02T15:21:12.512Z,70.97
2022-11-02T15:22:12.326Z,71.07
2022-11-02T15:24:17.589Z,71.16
2022-11-02T15:25:16.355Z,71.83
2022-11-02T15:27:20.412Z,71.16
2022-11-02T15:28:20.390Z,71.73
2022-11-02T15:30:14.047Z,71.73
2022-11-02T15:31:13.345Z,71.36
2022-11-02T15:33:17.359Z,71.22
2022-11-02T15:34:17.381Z,71.61
2022-11-02T15:36:21.860Z,71.89
2022-11-02T15:37:21.416Z,72.37
2022-11-02T15:39:25.418Z,72.08
2022-11-02T15:40:25.437Z,72.37
2022-11-02T15:42:29.927Z,72.56
2022-11-02T15:43:29.474Z,72.56
2022-11-02T15:45:47.852Z,72.85
2022-11-02T15:46:33.503Z,73.23
2022-11-02T15:48:37.993Z,73.58
2022-11-02T15:49:37.549Z,73.48
2022-11-02T15:51:41.564Z,74.15
2022-11-02T15:53:01.624Z,74.34
2022-11-02T15:54:46.501Z,75.10
2022-11-02T15:55:45.611Z,74.44
2022-11-02T15:57:49.633Z,74.82